sensor_id;sensor_type;location;lat;lon;timestamp;pressure;altitude;pressure_sealevel;temperature;humidity
59154;BME280;44935;48.944;9.418;2022-07-04T00:01:31;98829.37;;;20.30;48.49
59154;BME280;44935;48.944;9.418;2022-07-04T00:03:58;98829.75;;;19.64;50.00
59154;BME280;44935;48.944;9.418;2022-07-04T00:06:25;98832.00;;;19.64;50.06
59154;BME280;44935;48.944;9.418;2022-07-04T00:08:51;98841.93;;;19.73;50.81
59154;BME280;44935;48.944;9.418;2022-07-04T00:11:18;98839.29;;;19.57;50.71
59154;BME280;44935;48.944;9.418;2022-07-04T00:13:45;98826.01;;;20.17;49.43
59154;BME280;44935;48.944;9.418;2022-07-04T00:16:12;98823.09;;;20.52;47.70
59154;BME280;44935;48.944;9.418;2022-07-04T00:18:39;98822.86;;;21.08;47.59
59154;BME280;44935;48.944;9.418;2022-07-04T00:21:06;98820.32;;;21.14;47.30
59154;BME280;44935;48.944;9.418;2022-07-04T00:23:33;98824.35;;;20.17;49.68
59154;BME280;44935;48.944;9.418;2022-07-04T00:26:00;98827.37;;;20.39;48.77
59154;BME280;44935;48.944;9.418;2022-07-04T00:28:27;98824.06;;;20.67;48.59
59154;BME280;44935;48.944;9.418;2022-07-04T00:30:54;98822.71;;;20.74;48.79
59154;BME280;44935;48.944;9.418;2022-07-04T00:33:21;98819.23;;;21.04;47.80
59154;BME280;44935;48.944;9.418;2022-07-04T00:35:48;98817.06;;;20.54;49.39
59154;BME280;44935;48.944;9.418;2022-07-04T00:38:15;98822.52;;;21.21;47.12
59154;BME280;44935;48.944;9.418;2022-07-04T00:40:41;98823.03;;;20.46;48.70
59154;BME280;44935;48.944;9.418;2022-07-04T00:43:08;98816.59;;;20.50;49.53
59154;BME280;44935;48.944;9.418;2022-07-04T00:45:35;98814.20;;;20.67;49.21
59154;BME280;44935;48.944;9.418;2022-07-04T00:48:02;98814.78;;;20.15;50.32
59154;BME280;44935;48.944;9.418;2022-07-04T00:50:29;98816.66;;;20.31;50.39
59154;BME280;44935;48.944;9.418;2022-07-04T00:52:57;98820.40;;;20.05;51.21
59154;BME280;44935;48.944;9.418;2022-07-04T00:55:24;98824.34;;;19.64;51.46
59154;BME280;44935;48.944;9.418;2022-07-04T00:57:52;98825.65;;;19.64;51.75
59154;BME280;44935;48.944;9.418;2022-07-04T01:00:19;98828.65;;;19.76;51.83
59154;BME280;44935;48.944;9.418;2022-07-04T01:02:47;98837.36;;;19.83;52.39
59154;BME280;44935;48.944;9.418;2022-07-04T01:05:15;98837.32;;;19.87;52.53
59154;BME280;44935;48.944;9.418;2022-07-04T01:07:43;98834.78;;;19.95;52.61
59154;BME280;44935;48.944;9.418;2022-07-04T01:10:10;98836.10;;;19.29;52.85
59154;BME280;44935;48.944;9.418;2022-07-04T01:12:38;98830.96;;;19.76;52.79
59154;BME280;44935;48.944;9.418;2022-07-04T01:15:06;98822.45;;;20.13;52.09
59154;BME280;44935;48.944;9.418;2022-07-04T01:17:34;98828.98;;;19.64;52.70
59154;BME280;44935;48.944;9.418;2022-07-04T01:20:01;98832.84;;;19.52;53.50
59154;BME280;44935;48.944;9.418;2022-07-04T01:22:29;98840.21;;;19.62;53.63
59154;BME280;44935;48.944;9.418;2022-07-04T01:24:55;98843.40;;;19.63;53.15
59154;BME280;44935;48.944;9.418;2022-07-04T01:27:22;98844.35;;;19.40;52.95
59154;BME280;44935;48.944;9.418;2022-07-04T01:29:49;98846.05;;;19.80;52.79
59154;BME280;44935;48.944;9.418;2022-07-04T01:32:16;98845.94;;;19.71;52.80
59154;BME280;44935;48.944;9.418;2022-07-04T01:34:43;98842.85;;;19.69;52.30
59154;BME280;44935;48.944;9.418;2022-07-04T01:37:10;98841.41;;;19.98;52.47
59154;BME280;44935;48.944;9.418;2022-07-04T01:39:37;98835.71;;;20.11;51.69
59154;BME280;44935;48.944;9.418;2022-07-04T01:42:05;98842.27;;;19.76;52.25
59154;BME280;44935;48.944;9.418;2022-07-04T01:44:33;98849.05;;;19.65;52.21
59154;BME280;44935;48.944;9.418;2022-07-04T01:47:01;98849.34;;;19.52;52.79
59154;BME280;44935;48.944;9.418;2022-07-04T01:49:28;98851.19;;;20.00;52.39
59154;BME280;44935;48.944;9.418;2022-07-04T01:51:55;98852.66;;;19.89;52.58
59154;BME280;44935;48.944;9.418;2022-07-04T01:54:22;98852.13;;;19.80;52.47
59154;BME280;44935;48.944;9.418;2022-07-04T01:56:49;98856.87;;;19.94;52.30
59154;BME280;44935;48.944;9.418;2022-07-04T01:59:16;98859.51;;;19.70;52.15
59154;BME280;44935;48.944;9.418;2022-07-04T02:01:43;98865.10;;;19.76;52.41
59154;BME280;44935;48.944;9.418;2022-07-04T02:04:10;98871.01;;;19.82;52.60
59154;BME280;44935;48.944;9.418;2022-07-04T02:06:36;98866.85;;;19.78;53.03
59154;BME280;44935;48.944;9.418;2022-07-04T02:09:03;98865.80;;;19.95;52.69
59154;BME280;44935;48.944;9.418;2022-07-04T02:11:30;98865.30;;;20.09;51.40
59154;BME280;44935;48.944;9.418;2022-07-04T02:13:57;98870.76;;;20.10;51.10
59154;BME280;44935;48.944;9.418;2022-07-04T02:16:24;98875.58;;;20.01;51.42
59154;BME280;44935;48.944;9.418;2022-07-04T02:18:51;98880.30;;;20.15;50.79
59154;BME280;44935;48.944;9.418;2022-07-04T02:21:18;98882.30;;;19.95;52.02
59154;BME280;44935;48.944;9.418;2022-07-04T02:23:45;98885.00;;;19.78;52.95
59154;BME280;44935;48.944;9.418;2022-07-04T02:26:12;98887.64;;;19.71;52.87
59154;BME280;44935;48.944;9.418;2022-07-04T02:28:39;98889.82;;;19.53;53.56
59154;BME280;44935;48.944;9.418;2022-07-04T02:31:06;98894.22;;;19.80;53.03
59154;BME280;44935;48.944;9.418;2022-07-04T02:33:33;98892.51;;;19.91;51.53
59154;BME280;44935;48.944;9.418;2022-07-04T02:36:00;98889.41;;;20.25;50.85
59154;BME280;44935;48.944;9.418;2022-07-04T02:38:26;98891.40;;;20.43;51.24
59154;BME280;44935;48.944;9.418;2022-07-04T02:40:53;98891.92;;;19.91;51.14
59154;BME280;44935;48.944;9.418;2022-07-04T02:43:20;98896.63;;;19.98;51.64
59154;BME280;44935;48.944;9.418;2022-07-04T02:45:47;98899.88;;;19.42;52.38
59154;BME280;44935;48.944;9.418;2022-07-04T02:48:14;98902.16;;;19.58;52.82
59154;BME280;44935;48.944;9.418;2022-07-04T02:50:41;98907.05;;;19.26;53.04
59154;BME280;44935;48.944;9.418;2022-07-04T02:53:08;98907.35;;;19.28;52.69
59154;BME280;44935;48.944;9.418;2022-07-04T02:55:35;98907.80;;;19.30;52.48
59154;BME280;44935;48.944;9.418;2022-07-04T02:58:02;98912.19;;;19.18;52.54
59154;BME280;44935;48.944;9.418;2022-07-04T03:00:29;98919.82;;;19.22;52.56
59154;BME280;44935;48.944;9.418;2022-07-04T03:02:56;98926.76;;;19.09;52.66
59154;BME280;44935;48.944;9.418;2022-07-04T03:05:23;98932.49;;;19.18;53.01
59154;BME280;44935;48.944;9.418;2022-07-04T03:07:49;98929.44;;;19.59;52.35
59154;BME280;44935;48.944;9.418;2022-07-04T03:10:16;98929.39;;;19.86;51.61
59154;BME280;44935;48.944;9.418;2022-07-04T03:12:43;98929.89;;;19.91;50.85
59154;BME280;44935;48.944;9.418;2022-07-04T03:15:10;98931.45;;;19.87;50.80
59154;BME280;44935;48.944;9.418;2022-07-04T03:17:37;98932.34;;;19.36;50.48
59154;BME280;44935;48.944;9.418;2022-07-04T03:20:04;98935.53;;;19.62;50.20
59154;BME280;44935;48.944;9.418;2022-07-04T03:22:31;98935.45;;;19.59;50.10
59154;BME280;44935;48.944;9.418;2022-07-04T03:24:58;98937.08;;;19.68;50.42
59154;BME280;44935;48.944;9.418;2022-07-04T03:27:25;98937.96;;;19.40;50.80
59154;BME280;44935;48.944;9.418;2022-07-04T03:29:52;98939.01;;;19.44;51.37
59154;BME280;44935;48.944;9.418;2022-07-04T03:32:19;98939.86;;;19.16;51.57
59154;BME280;44935;48.944;9.418;2022-07-04T03:34:46;98939.91;;;19.13;51.23
59154;BME280;44935;48.944;9.418;2022-07-04T03:37:13;98938.45;;;19.11;51.79
59154;BME280;44935;48.944;9.418;2022-07-04T03:39:39;98940.47;;;19.40;51.26
59154;BME280;44935;48.944;9.418;2022-07-04T03:42:07;98945.81;;;19.55;50.81
59154;BME280;44935;48.944;9.418;2022-07-04T03:44:34;98950.53;;;19.31;51.29
59154;BME280;44935;48.944;9.418;2022-07-04T03:47:01;98953.25;;;19.50;50.90
59154;BME280;44935;48.944;9.418;2022-07-04T03:49:29;98952.00;;;19.45;50.46
59154;BME280;44935;48.944;9.418;2022-07-04T03:51:56;98959.68;;;19.02;51.45
59154;BME280;44935;48.944;9.418;2022-07-04T03:54:22;98964.70;;;18.88;52.32
59154;BME280;44935;48.944;9.418;2022-07-04T03:56:49;98962.82;;;18.95;52.23
59154;BME280;44935;48.944;9.418;2022-07-04T03:59:16;98964.28;;;19.04;52.31
59154;BME280;44935;48.944;9.418;2022-07-04T04:01:43;98966.48;;;18.98;52.22
59154;BME280;44935;48.944;9.418;2022-07-04T04:04:10;98970.09;;;18.89;52.02
59154;BME280;44935;48.944;9.418;2022-07-04T04:06:37;98964.89;;;19.14;51.29
59154;BME280;44935;48.944;9.418;2022-07-04T04:09:04;98965.32;;;19.37;50.66
59154;BME280;44935;48.944;9.418;2022-07-04T04:11:31;98962.40;;;19.70;49.90
59154;BME280;44935;48.944;9.418;2022-07-04T04:13:57;98966.11;;;20.04;48.59
59154;BME280;44935;48.944;9.418;2022-07-04T04:16:24;98970.80;;;19.69;48.60
59154;BME280;44935;48.944;9.418;2022-07-04T04:18:51;98972.16;;;19.41;51.16
59154;BME280;44935;48.944;9.418;2022-07-04T04:21:18;98967.53;;;19.22;51.27
59154;BME280;44935;48.944;9.418;2022-07-04T04:23:45;98965.93;;;18.86;52.08
59154;BME280;44935;48.944;9.418;2022-07-04T04:26:12;98962.15;;;19.24;51.68
59154;BME280;44935;48.944;9.418;2022-07-04T04:28:39;98962.39;;;19.70;50.21
59154;BME280;44935;48.944;9.418;2022-07-04T04:31:05;98961.14;;;19.83;47.98
59154;BME280;44935;48.944;9.418;2022-07-04T04:33:34;98963.70;;;19.88;48.52
59154;BME280;44935;48.944;9.418;2022-07-04T04:36:02;98973.04;;;19.25;49.24
59154;BME280;44935;48.944;9.418;2022-07-04T04:38:29;98982.91;;;18.99;51.23
59154;BME280;44935;48.944;9.418;2022-07-04T04:40:56;98989.06;;;19.24;51.74
59154;BME280;44935;48.944;9.418;2022-07-04T04:43:23;98995.81;;;18.83;52.83
59154;BME280;44935;48.944;9.418;2022-07-04T04:45:50;99001.05;;;18.28;53.62
59154;BME280;44935;48.944;9.418;2022-07-04T04:48:17;99008.27;;;18.42;53.52
59154;BME280;44935;48.944;9.418;2022-07-04T04:50:43;99012.22;;;18.45;54.21
59154;BME280;44935;48.944;9.418;2022-07-04T04:53:10;99016.20;;;18.60;53.92
59154;BME280;44935;48.944;9.418;2022-07-04T04:55:37;99026.12;;;18.41;53.74
59154;BME280;44935;48.944;9.418;2022-07-04T04:58:04;99029.65;;;18.91;53.33
59154;BME280;44935;48.944;9.418;2022-07-04T05:00:31;99031.70;;;18.87;53.39
59154;BME280;44935;48.944;9.418;2022-07-04T05:02:58;99033.95;;;18.74;53.21
59154;BME280;44935;48.944;9.418;2022-07-04T05:05:25;99036.29;;;18.46;52.31
59154;BME280;44935;48.944;9.418;2022-07-04T05:07:52;99041.08;;;18.79;52.27
59154;BME280;44935;48.944;9.418;2022-07-04T05:10:19;99036.59;;;18.82;51.19
59154;BME280;44935;48.944;9.418;2022-07-04T05:12:45;99034.92;;;19.50;49.88
59154;BME280;44935;48.944;9.418;2022-07-04T05:15:12;99036.18;;;19.86;49.39
59154;BME280;44935;48.944;9.418;2022-07-04T05:17:39;99039.37;;;19.91;49.67
59154;BME280;44935;48.944;9.418;2022-07-04T05:20:07;99044.59;;;19.31;50.24
59154;BME280;44935;48.944;9.418;2022-07-04T05:22:34;99040.78;;;19.46;49.64
59154;BME280;44935;48.944;9.418;2022-07-04T05:25:01;99042.84;;;19.33;49.73
59154;BME280;44935;48.944;9.418;2022-07-04T05:27:28;99047.08;;;19.38;50.21
59154;BME280;44935;48.944;9.418;2022-07-04T05:29:55;99043.76;;;19.63;49.13
59154;BME280;44935;48.944;9.418;2022-07-04T05:32:22;99039.97;;;20.19;48.27
59154;BME280;44935;48.944;9.418;2022-07-04T05:34:49;99036.54;;;19.96;48.14
59154;BME280;44935;48.944;9.418;2022-07-04T05:37:16;99043.19;;;19.75;48.22
59154;BME280;44935;48.944;9.418;2022-07-04T05:39:43;99043.76;;;19.95;48.46
59154;BME280;44935;48.944;9.418;2022-07-04T05:42:10;99039.91;;;20.28;48.66
59154;BME280;44935;48.944;9.418;2022-07-04T05:44:37;99039.39;;;19.66;47.84
59154;BME280;44935;48.944;9.418;2022-07-04T05:47:04;99037.97;;;20.04;47.12
59154;BME280;44935;48.944;9.418;2022-07-04T05:49:31;99042.40;;;18.54;48.47
59154;BME280;44935;48.944;9.418;2022-07-04T05:51:58;99038.47;;;19.58;47.97
59154;BME280;44935;48.944;9.418;2022-07-04T05:54:25;99036.32;;;20.71;46.98
59154;BME280;44935;48.944;9.418;2022-07-04T05:56:51;99033.06;;;20.60;45.62
59154;BME280;44935;48.944;9.418;2022-07-04T05:59:18;99035.15;;;20.05;45.79
59154;BME280;44935;48.944;9.418;2022-07-04T06:01:45;99036.32;;;19.82;46.35
59154;BME280;44935;48.944;9.418;2022-07-04T06:04:12;99035.71;;;20.21;45.74
59154;BME280;44935;48.944;9.418;2022-07-04T06:06:39;99036.31;;;19.92;45.09
59154;BME280;44935;48.944;9.418;2022-07-04T06:09:06;99039.79;;;20.35;45.66
59154;BME280;44935;48.944;9.418;2022-07-04T06:11:33;99042.03;;;20.00;45.21
59154;BME280;44935;48.944;9.418;2022-07-04T06:13:59;99042.45;;;20.47;44.29
59154;BME280;44935;48.944;9.418;2022-07-04T06:16:27;99042.09;;;20.04;44.64
59154;BME280;44935;48.944;9.418;2022-07-04T06:18:53;99039.56;;;20.73;44.29
59154;BME280;44935;48.944;9.418;2022-07-04T06:21:20;99035.48;;;21.25;44.36
59154;BME280;44935;48.944;9.418;2022-07-04T06:23:47;99034.63;;;21.16;43.80
59154;BME280;44935;48.944;9.418;2022-07-04T06:26:14;99036.68;;;21.44;42.78
59154;BME280;44935;48.944;9.418;2022-07-04T06:28:41;99032.13;;;19.63;47.33
59154;BME280;44935;48.944;9.418;2022-07-04T06:31:08;99029.35;;;21.22;43.42
59154;BME280;44935;48.944;9.418;2022-07-04T06:33:34;99028.27;;;21.16;44.29
59154;BME280;44935;48.944;9.418;2022-07-04T06:36:01;99025.80;;;20.87;43.91
59154;BME280;44935;48.944;9.418;2022-07-04T06:38:29;99025.78;;;21.46;42.91
59154;BME280;44935;48.944;9.418;2022-07-04T06:40:58;99033.95;;;20.46;44.65
59154;BME280;44935;48.944;9.418;2022-07-04T06:43:25;99034.13;;;21.08;43.72
59154;BME280;44935;48.944;9.418;2022-07-04T06:45:53;99027.54;;;21.12;43.11
59154;BME280;44935;48.944;9.418;2022-07-04T06:48:21;99029.30;;;21.82;42.99
59154;BME280;44935;48.944;9.418;2022-07-04T06:50:48;99034.73;;;22.14;41.93
59154;BME280;44935;48.944;9.418;2022-07-04T06:53:14;99033.63;;;21.07;43.30
59154;BME280;44935;48.944;9.418;2022-07-04T06:55:41;99037.22;;;21.76;42.50
59154;BME280;44935;48.944;9.418;2022-07-04T06:58:09;99038.64;;;21.81;42.99
59154;BME280;44935;48.944;9.418;2022-07-04T07:00:37;99036.13;;;21.42;43.10
59154;BME280;44935;48.944;9.418;2022-07-04T07:03:04;99034.92;;;21.76;41.98
59154;BME280;44935;48.944;9.418;2022-07-04T07:05:31;99031.65;;;22.00;42.51
59154;BME280;44935;48.944;9.418;2022-07-04T07:07:58;99026.98;;;21.81;41.93
59154;BME280;44935;48.944;9.418;2022-07-04T07:10:25;99027.30;;;21.46;42.27
59154;BME280;44935;48.944;9.418;2022-07-04T07:12:52;99028.03;;;22.14;41.18
59154;BME280;44935;48.944;9.418;2022-07-04T07:15:19;99027.34;;;21.82;41.48
59154;BME280;44935;48.944;9.418;2022-07-04T07:17:46;99022.18;;;21.69;43.31
59154;BME280;44935;48.944;9.418;2022-07-04T07:20:13;99022.14;;;22.62;42.72
59154;BME280;44935;48.944;9.418;2022-07-04T07:22:40;99019.11;;;21.81;42.57
59154;BME280;44935;48.944;9.418;2022-07-04T07:25:09;99016.81;;;22.08;43.09
59154;BME280;44935;48.944;9.418;2022-07-04T07:27:37;99017.96;;;21.95;43.77
59154;BME280;44935;48.944;9.418;2022-07-04T07:30:05;99016.98;;;22.16;40.56
59154;BME280;44935;48.944;9.418;2022-07-04T07:32:33;99016.87;;;22.70;40.96
59154;BME280;44935;48.944;9.418;2022-07-04T07:35:00;99012.86;;;22.49;41.40
59154;BME280;44935;48.944;9.418;2022-07-04T07:37:27;99011.34;;;22.08;41.71
59154;BME280;44935;48.944;9.418;2022-07-04T07:39:54;99009.65;;;21.69;42.14
59154;BME280;44935;48.944;9.418;2022-07-04T07:42:23;99010.95;;;21.90;42.53
59154;BME280;44935;48.944;9.418;2022-07-04T07:44:49;99012.20;;;21.29;43.24
59154;BME280;44935;48.944;9.418;2022-07-04T07:47:17;99010.39;;;21.14;43.00
59154;BME280;44935;48.944;9.418;2022-07-04T07:49:44;99010.80;;;21.29;43.01
59154;BME280;44935;48.944;9.418;2022-07-04T07:52:11;99007.17;;;19.92;46.31
59154;BME280;44935;48.944;9.418;2022-07-04T07:54:38;99010.18;;;21.00;43.99
59154;BME280;44935;48.944;9.418;2022-07-04T07:57:05;99011.14;;;22.05;42.43
59154;BME280;44935;48.944;9.418;2022-07-04T07:59:32;99005.98;;;22.00;42.26
59154;BME280;44935;48.944;9.418;2022-07-04T08:01:59;99000.63;;;21.76;42.51
59154;BME280;44935;48.944;9.418;2022-07-04T08:04:26;99004.20;;;21.90;43.06
59154;BME280;44935;48.944;9.418;2022-07-04T08:06:52;99002.91;;;22.49;41.73
59154;BME280;44935;48.944;9.418;2022-07-04T08:09:19;99006.30;;;22.82;41.08
59154;BME280;44935;48.944;9.418;2022-07-04T08:11:46;98998.23;;;22.55;41.01
59154;BME280;44935;48.944;9.418;2022-07-04T08:14:13;98994.36;;;22.09;41.42
59154;BME280;44935;48.944;9.418;2022-07-04T08:16:40;98996.94;;;22.05;41.76
59154;BME280;44935;48.944;9.418;2022-07-04T08:19:07;98992.79;;;20.99;45.47
59154;BME280;44935;48.944;9.418;2022-07-04T08:21:34;98992.29;;;20.17;45.36
59154;BME280;44935;48.944;9.418;2022-07-04T08:24:01;98992.90;;;21.10;44.23
59154;BME280;44935;48.944;9.418;2022-07-04T08:26:28;98995.95;;;20.76;44.70
59154;BME280;44935;48.944;9.418;2022-07-04T08:28:55;98990.88;;;22.20;42.65
59154;BME280;44935;48.944;9.418;2022-07-04T08:31:22;98985.74;;;22.41;41.73
59154;BME280;44935;48.944;9.418;2022-07-04T08:33:50;98982.99;;;21.73;42.09
59154;BME280;44935;48.944;9.418;2022-07-04T08:36:17;98987.39;;;21.94;42.60
59154;BME280;44935;48.944;9.418;2022-07-04T08:38:44;98983.28;;;22.03;41.83
59154;BME280;44935;48.944;9.418;2022-07-04T08:41:12;98976.65;;;20.29;46.96
59154;BME280;44935;48.944;9.418;2022-07-04T08:43:42;98976.10;;;22.55;42.61
59154;BME280;44935;48.944;9.418;2022-07-04T08:46:10;98973.66;;;21.62;42.07
59154;BME280;44935;48.944;9.418;2022-07-04T08:48:38;98978.82;;;22.01;42.29
59154;BME280;44935;48.944;9.418;2022-07-04T08:51:13;98979.40;;;22.58;41.70
59154;BME280;44935;48.944;9.418;2022-07-04T08:53:48;98981.13;;;23.00;40.59
59154;BME280;44935;48.944;9.418;2022-07-04T08:56:15;98980.88;;;22.06;40.58
59154;BME280;44935;48.944;9.418;2022-07-04T08:58:42;98979.97;;;21.82;41.78
59154;BME280;44935;48.944;9.418;2022-07-04T09:01:11;98981.97;;;22.01;41.47
59154;BME280;44935;48.944;9.418;2022-07-04T09:03:38;98984.09;;;22.74;41.06
59154;BME280;44935;48.944;9.418;2022-07-04T09:06:06;98986.33;;;23.35;40.10
59154;BME280;44935;48.944;9.418;2022-07-04T09:08:33;98988.08;;;23.19;39.60
59154;BME280;44935;48.944;9.418;2022-07-04T09:11:00;98992.53;;;22.01;42.65
59154;BME280;44935;48.944;9.418;2022-07-04T09:13:26;98997.24;;;22.41;42.17
59154;BME280;44935;48.944;9.418;2022-07-04T09:15:53;98993.05;;;22.26;41.45
59154;BME280;44935;48.944;9.418;2022-07-04T09:18:22;98998.66;;;21.88;41.45
59154;BME280;44935;48.944;9.418;2022-07-04T09:20:50;99000.80;;;22.29;42.28
59154;BME280;44935;48.944;9.418;2022-07-04T09:23:19;98999.89;;;23.13;41.07
59154;BME280;44935;48.944;9.418;2022-07-04T09:25:46;99002.26;;;23.22;41.06
59154;BME280;44935;48.944;9.418;2022-07-04T09:28:27;99002.65;;;22.73;41.85
59154;BME280;44935;48.944;9.418;2022-07-04T09:30:54;99004.36;;;22.47;41.28
59154;BME280;44935;48.944;9.418;2022-07-04T09:33:21;99002.74;;;22.46;41.76
59154;BME280;44935;48.944;9.418;2022-07-04T09:35:48;99003.93;;;22.16;42.24
59154;BME280;44935;48.944;9.418;2022-07-04T09:38:21;99009.68;;;22.32;41.73
59154;BME280;44935;48.944;9.418;2022-07-04T09:40:52;99010.63;;;22.79;41.79
59154;BME280;44935;48.944;9.418;2022-07-04T09:43:19;99012.50;;;22.70;41.59
59154;BME280;44935;48.944;9.418;2022-07-04T09:45:53;99011.94;;;22.40;41.01
59154;BME280;44935;48.944;9.418;2022-07-04T09:48:22;99010.79;;;22.51;41.18
59154;BME280;44935;48.944;9.418;2022-07-04T09:50:49;99010.95;;;22.89;40.32
59154;BME280;44935;48.944;9.418;2022-07-04T09:53:17;99013.32;;;23.63;40.02
59154;BME280;44935;48.944;9.418;2022-07-04T09:55:44;99018.24;;;23.69;39.71
59154;BME280;44935;48.944;9.418;2022-07-04T09:58:14;99024.37;;;23.59;38.65
59154;BME280;44935;48.944;9.418;2022-07-04T10:00:44;99021.52;;;24.03;38.59
59154;BME280;44935;48.944;9.418;2022-07-04T10:03:17;99022.44;;;24.70;36.81
59154;BME280;44935;48.944;9.418;2022-07-04T10:05:45;99025.31;;;23.59;38.12
59154;BME280;44935;48.944;9.418;2022-07-04T10:08:12;99023.25;;;23.60;37.90
59154;BME280;44935;48.944;9.418;2022-07-04T10:10:40;99018.89;;;23.51;39.33
59154;BME280;44935;48.944;9.418;2022-07-04T10:13:08;99019.78;;;23.87;38.85
59154;BME280;44935;48.944;9.418;2022-07-04T10:15:38;99022.74;;;23.56;39.03
59154;BME280;44935;48.944;9.418;2022-07-04T10:18:06;99016.67;;;24.05;36.54
59154;BME280;44935;48.944;9.418;2022-07-04T10:20:34;99022.78;;;23.63;36.10
59154;BME280;44935;48.944;9.418;2022-07-04T10:23:02;99016.37;;;21.67;40.37
59154;BME280;44935;48.944;9.418;2022-07-04T10:25:29;99023.09;;;22.51;39.52
59154;BME280;44935;48.944;9.418;2022-07-04T10:27:57;99028.23;;;22.90;40.27
59154;BME280;44935;48.944;9.418;2022-07-04T10:30:26;99030.63;;;23.84;39.07
59154;BME280;44935;48.944;9.418;2022-07-04T10:32:57;99029.72;;;23.81;38.05
59154;BME280;44935;48.944;9.418;2022-07-04T10:35:48;99023.42;;;24.29;37.40
59154;BME280;44935;48.944;9.418;2022-07-04T10:38:16;99026.23;;;24.60;38.01
59154;BME280;44935;48.944;9.418;2022-07-04T10:40:46;99024.19;;;24.38;36.05
59154;BME280;44935;48.944;9.418;2022-07-04T10:43:58;99023.81;;;24.80;34.55
59154;BME280;44935;48.944;9.418;2022-07-04T10:46:29;99021.96;;;23.87;36.50
59154;BME280;44935;48.944;9.418;2022-07-04T10:48:58;99019.56;;;23.80;35.12
59154;BME280;44935;48.944;9.418;2022-07-04T10:51:35;99011.77;;;23.96;35.27
59154;BME280;44935;48.944;9.418;2022-07-04T10:54:04;99012.61;;;24.14;33.68
59154;BME280;44935;48.944;9.418;2022-07-04T10:56:36;99014.02;;;24.10;35.88
59154;BME280;44935;48.944;9.418;2022-07-04T10:59:08;99022.92;;;23.56;33.94
59154;BME280;44935;48.944;9.418;2022-07-04T11:01:36;99024.52;;;23.71;36.13
59154;BME280;44935;48.944;9.418;2022-07-04T11:04:03;99022.25;;;23.70;36.07
59154;BME280;44935;48.944;9.418;2022-07-04T11:07:03;99021.23;;;24.45;34.57
59154;BME280;44935;48.944;9.418;2022-07-04T11:09:29;99025.59;;;24.06;34.48
59154;BME280;44935;48.944;9.418;2022-07-04T11:11:59;99022.73;;;24.42;34.64
59154;BME280;44935;48.944;9.418;2022-07-04T11:14:37;99022.76;;;24.48;33.73
59154;BME280;44935;48.944;9.418;2022-07-04T11:17:06;99020.21;;;24.60;34.82
59154;BME280;44935;48.944;9.418;2022-07-04T11:19:34;99012.66;;;24.47;34.09
59154;BME280;44935;48.944;9.418;2022-07-04T11:22:02;99011.95;;;24.86;33.97
59154;BME280;44935;48.944;9.418;2022-07-04T11:24:29;99009.14;;;24.87;35.11
59154;BME280;44935;48.944;9.418;2022-07-04T11:26:56;99002.26;;;24.72;33.47
59154;BME280;44935;48.944;9.418;2022-07-04T11:29:23;98996.38;;;24.47;34.11
59154;BME280;44935;48.944;9.418;2022-07-04T11:31:51;98992.72;;;24.98;32.26
59154;BME280;44935;48.944;9.418;2022-07-04T11:34:19;98989.99;;;25.04;33.74
59154;BME280;44935;48.944;9.418;2022-07-04T11:36:48;98983.15;;;24.80;32.90
59154;BME280;44935;48.944;9.418;2022-07-04T11:39:17;98981.51;;;24.69;35.22
59154;BME280;44935;48.944;9.418;2022-07-04T11:41:45;98975.28;;;26.09;33.64
59154;BME280;44935;48.944;9.418;2022-07-04T11:44:15;98968.47;;;24.16;33.30
59154;BME280;44935;48.944;9.418;2022-07-04T11:46:42;98960.39;;;21.18;38.73
59154;BME280;44935;48.944;9.418;2022-07-04T11:49:09;98956.70;;;23.60;36.78
59154;BME280;44935;48.944;9.418;2022-07-04T11:51:42;98948.08;;;23.84;34.79
59154;BME280;44935;48.944;9.418;2022-07-04T11:54:09;98949.88;;;24.16;35.30
59154;BME280;44935;48.944;9.418;2022-07-04T11:56:36;98949.16;;;23.99;34.81
59154;BME280;44935;48.944;9.418;2022-07-04T11:59:11;98945.63;;;24.20;34.84
59154;BME280;44935;48.944;9.418;2022-07-04T12:01:39;98950.71;;;25.03;35.42
59154;BME280;44935;48.944;9.418;2022-07-04T12:04:15;98945.55;;;25.27;33.18
59154;BME280;44935;48.944;9.418;2022-07-04T12:06:43;98947.83;;;25.20;33.16
59154;BME280;44935;48.944;9.418;2022-07-04T12:09:12;98941.05;;;24.24;34.49
59154;BME280;44935;48.944;9.418;2022-07-04T12:11:57;98941.65;;;24.24;34.71
59154;BME280;44935;48.944;9.418;2022-07-04T12:14:24;98942.00;;;25.06;33.87
59154;BME280;44935;48.944;9.418;2022-07-04T12:17:10;98936.26;;;24.99;33.96
59154;BME280;44935;48.944;9.418;2022-07-04T12:19:37;98928.17;;;24.11;34.31
59154;BME280;44935;48.944;9.418;2022-07-04T12:22:04;98929.73;;;24.48;35.32
59154;BME280;44935;48.944;9.418;2022-07-04T12:24:47;98921.28;;;23.09;37.24
59154;BME280;44935;48.944;9.418;2022-07-04T12:27:18;98921.70;;;24.29;36.59
59154;BME280;44935;48.944;9.418;2022-07-04T12:29:47;98919.48;;;22.84;37.16
59154;BME280;44935;48.944;9.418;2022-07-04T12:32:14;98904.01;;;24.03;35.82
59154;BME280;44935;48.944;9.418;2022-07-04T12:34:41;98898.28;;;24.18;36.14
59154;BME280;44935;48.944;9.418;2022-07-04T12:37:10;98894.23;;;25.35;34.42
59154;BME280;44935;48.944;9.418;2022-07-04T12:39:39;98893.71;;;25.46;34.74
59154;BME280;44935;48.944;9.418;2022-07-04T12:42:08;98892.23;;;25.37;34.10
59154;BME280;44935;48.944;9.418;2022-07-04T12:44:36;98886.54;;;25.30;33.18
59154;BME280;44935;48.944;9.418;2022-07-04T12:47:04;98886.90;;;25.92;33.67
59154;BME280;44935;48.944;9.418;2022-07-04T12:49:32;98884.25;;;24.87;33.80
59154;BME280;44935;48.944;9.418;2022-07-04T12:52:05;98879.39;;;24.60;33.90
59154;BME280;44935;48.944;9.418;2022-07-04T12:54:32;98876.94;;;24.94;34.66
59154;BME280;44935;48.944;9.418;2022-07-04T12:57:06;98873.56;;;25.57;33.26
59154;BME280;44935;48.944;9.418;2022-07-04T12:59:34;98870.51;;;25.23;32.71
59154;BME280;44935;48.944;9.418;2022-07-04T13:02:02;98869.42;;;25.53;34.30
59154;BME280;44935;48.944;9.418;2022-07-04T13:04:29;98868.95;;;26.07;33.77